Time;durP1;ratioP1;P1;durP2;ratioP2;P2;SDS_P1;SDS_P2;PMS_P1;PMS_P2;Temp;Humidity;BMP_temperature;BMP_pressure;BME280_temperature;BME280_humidity;BME280_pressure;Samples;Min_cycle;Max_cycle;Signal;HPM_P1;HPM_P2
2023/03/29 00:03:48;;;;;;;18.50;7.60;;;;;;;7.05;45.40;99765.59;267275;1268;22592;-74
2023/03/29 00:09:50;;;;;;;14.20;6.10;;;;;;;7.04;45.76;99770.86;267438;1273;23295;-73
2023/03/29 00:15:55;;;;;;;14.10;6.50;;;;;;;6.94;45.99;99765.13;267262;1266;25463;-77
2023/03/29 00:21:57;;;;;;;15.30;7.60;;;;;;;6.91;46.42;99764.69;266903;1274;22584;-76
2023/03/29 00:27:58;;;;;;;20.60;8.00;;;;;;;7.04;46.32;99765.63;267497;1267;23899;-73
2023/03/29 00:34:00;;;;;;;21.20;9.10;;;;;;;6.79;47.04;99774.55;267356;1266;22571;-73
2023/03/29 00:40:09;;;;;;;22.20;8.70;;;;;;;6.68;47.27;99778.85;268046;1252;22563;-73
2023/03/29 00:46:11;;;;;;;19.70;9.10;;;;;;;6.90;46.89;99776.96;267812;1270;23259;-73
2023/03/29 00:52:14;;;;;;;18.50;8.20;;;;;;;7.11;46.85;99777.48;268184;1269;22582;-73
2023/03/29 00:58:20;;;;;;;21.80;8.30;;;;;;;7.24;46.66;99770.90;268393;1266;25739;-73
2023/03/29 01:04:52;;;;;;;19.60;8.30;;;;;;;7.08;47.06;99767.90;267936;1273;22600;-74
2023/03/29 01:11:18;;;;;;;20.60;8.80;;;;;;;6.89;47.21;99762.01;268151;1268;24482;-74
2023/03/29 01:17:24;;;;;;;20.00;8.40;;;;;;;6.52;47.69;99759.25;267429;1268;25581;-76
2023/03/29 01:23:53;;;;;;;21.90;9.60;;;;;;;6.55;47.82;99755.39;267975;1270;25565;-76
2023/03/29 01:29:59;;;;;;;24.10;9.30;;;;;;;6.82;47.34;99749.78;268089;1273;23910;-77
2023/03/29 01:36:11;;;;;;;18.80;8.60;;;;;;;6.78;47.59;99747.67;268244;1269;24236;-77
2023/03/29 01:42:25;;;;;;;19.60;8.80;;;;;;;6.68;47.87;99738.89;267505;1267;25461;-75
2023/03/29 01:48:35;;;;;;;22.10;9.20;;;;;;;6.92;47.31;99740.48;267467;1267;24343;-74
2023/03/29 01:54:45;;;;;;;22.50;9.20;;;;;;;6.79;47.49;99738.78;267647;1262;22571;-75
2023/03/29 02:00:48;;;;;;;20.70;9.00;;;;;;;6.78;47.51;99742.59;267185;1266;22550;-75
2023/03/29 02:06:53;;;;;;;20.00;8.20;;;;;;;6.51;48.08;99745.69;267261;1257;22561;-74
2023/03/29 02:13:00;;;;;;;18.80;8.70;;;;;;;6.08;48.49;99748.45;267564;1269;24320;-78
2023/03/29 02:19:08;;;;;;;19.40;8.20;;;;;;;5.89;48.56;99746.11;268026;1270;24209;-76
2023/03/29 02:25:09;;;;;;;17.50;7.80;;;;;;;5.88;48.64;99742.45;267103;1257;25298;-75
2023/03/29 02:31:37;;;;;;;12.50;5.90;;;;;;;5.73;48.89;99744.23;267419;1262;24288;-75
2023/03/29 02:37:43;;;;;;;18.80;8.40;;;;;;;5.69;49.22;99739.94;267233;1270;25950;-77
2023/03/29 02:43:49;;;;;;;17.30;8.10;;;;;;;5.97;49.09;99746.45;267157;1269;22635;-76
2023/03/29 02:49:50;;;;;;;19.80;8.60;;;;;;;5.79;49.80;99744.82;267916;1270;22509;-75
2023/03/29 02:55:52;;;;;;;17.50;8.60;;;;;;;5.59;50.05;99747.84;267665;1257;22532;-76
2023/03/29 03:01:54;;;;;;;22.10;10.40;;;;;;;5.65;50.24;99748.91;267901;1266;22531;-74
2023/03/29 03:07:57;;;;;;;19.30;10.00;;;;;;;5.59;50.53;99741.67;268005;1268;23144;-74
2023/03/29 03:13:58;;;;;;;20.80;9.70;;;;;;;5.60;50.44;99739.23;268068;1256;22538;-74
2023/03/29 03:20:00;;;;;;;19.90;9.70;;;;;;;5.56;50.64;99745.56;267794;1267;24305;-75
2023/03/29 03:26:02;;;;;;;22.60;10.50;;;;;;;5.31;51.16;99748.74;267172;1266;22561;-74
2023/03/29 03:32:04;;;;;;;24.90;10.70;;;;;;;5.16;51.49;99756.69;267312;1267;25345;-75
2023/03/29 03:38:25;;;;;;;22.80;10.20;;;;;;;5.44;51.15;99754.39;267430;1268;22523;-74
2023/03/29 03:44:34;;;;;;;;;;;;;;;5.34;51.23;99753.75;267960;1268;24575;-79
2023/03/29 03:51:20;;;;;;;21.00;9.60;;;;;;;5.27;51.25;99751.30;267867;1272;22572;-80
2023/03/29 03:57:30;;;;;;;18.40;8.90;;;;;;;5.19;51.34;99755.96;266918;1270;22542;-81
2023/03/29 04:03:32;;;;;;;20.60;9.00;;;;;;;5.26;51.33;99760.91;267802;1277;22578;-77
2023/03/29 04:09:37;;;;;;;19.80;9.10;;;;;;;4.89;51.72;99763.66;267937;1277;22614;-77
2023/03/29 04:15:59;;;;;;;24.00;10.30;;;;;;;4.84;52.07;99764.67;267902;1277;25370;-81
2023/03/29 04:22:12;;;;;;;23.40;9.60;;;;;;;4.69;52.57;99759.55;268116;1274;22544;-80
2023/03/29 04:28:16;;;;;;;22.00;10.50;;;;;;;4.78;52.46;99765.26;268179;1270;25329;-80
2023/03/29 04:34:31;;;;;;;21.30;11.00;;;;;;;4.53;52.90;99760.98;268533;1262;24584;-80
2023/03/29 04:40:34;;;;;;;24.10;10.90;;;;;;;4.60;52.69;99761.66;266915;1266;24350;-74
2023/03/29 04:47:11;;;;;;;21.50;10.10;;;;;;;4.47;52.77;99761.41;266931;1270;22629;-76
2023/03/29 04:53:27;;;;;;;17.60;9.40;;;;;;;4.44;52.93;99761.29;267288;1268;24263;-78
2023/03/29 04:59:28;;;;;;;19.00;9.20;;;;;;;4.55;52.60;99760.28;267095;1273;22538;-77
2023/03/29 05:05:33;;;;;;;17.70;9.60;;;;;;;4.58;52.30;99755.45;267751;1268;22564;-75
2023/03/29 05:11:36;;;;;;;16.90;8.70;;;;;;;4.86;51.59;99744.83;267842;1267;22532;-72
2023/03/29 05:17:38;;;;;;;17.50;8.30;;;;;;;5.28;50.67;99744.14;267647;1269;24199;-72
2023/03/29 05:23:43;;;;;;;21.30;8.90;;;;;;;5.68;50.14;99739.69;267441;1255;22529;-70
2023/03/29 05:29:51;;;;;;;16.80;7.90;;;;;;;5.66;49.70;99744.23;267511;1255;22583;-72
2023/03/29 05:36:07;;;;;;;16.40;7.30;;;;;;;5.86;49.00;99749.85;267562;1268;22644;-71
2023/03/29 05:42:14;;;;;;;14.10;6.70;;;;;;;6.51;47.97;99749.57;267148;1268;22524;-71
2023/03/29 05:48:23;;;;;;;16.40;7.70;;;;;;;5.87;48.53;99757.52;273205;1259;23219;-71
2023/03/29 05:54:26;;;;;;;16.30;6.80;;;;;;;6.24;47.75;99750.70;274681;1270;22210;-73
2023/03/29 06:00:28;;;;;;;12.30;6.50;;;;;;;6.53;47.36;99751.59;269814;1257;25513;-73
2023/03/29 06:06:38;;;;;;;12.60;6.60;;;;;;;6.73;47.15;99751.75;268700;1266;24259;-71
2023/03/29 06:12:40;;;;;;;12.80;6.20;;;;;;;6.90;47.05;99754.17;269225;1269;22891;-72
2023/03/29 06:18:43;;;;;;;14.60;7.10;;;;;;;6.91;46.92;99751.73;267642;1269;22523;-71
2023/03/29 06:24:45;;;;;;;16.10;6.10;;;;;;;6.95;46.76;99748.46;267555;1269;22609;-72
2023/03/29 06:31:01;;;;;;;15.90;6.90;;;;;;;7.78;46.09;99754.61;267237;1259;23347;-72
2023/03/29 06:37:07;;;;;;;14.20;6.30;;;;;;;7.63;45.46;99759.84;267052;1266;26498;-72
2023/03/29 06:43:09;;;;;;;12.60;5.80;;;;;;;7.55;45.75;99762.16;268033;1269;24180;-72
2023/03/29 06:49:28;;;;;;;10.00;5.70;;;;;;;7.17;46.46;99764.59;267576;1259;22612;-72
2023/03/29 06:55:53;;;;;;;12.40;6.20;;;;;;;8.16;45.59;99770.81;267689;1265;25577;-74
2023/03/29 07:02:11;;;;;;;12.30;5.60;;;;;;;7.73;45.95;99768.84;267110;1266;25174;-73
2023/03/29 07:08:21;;;;;;;12.50;4.90;;;;;;;7.68;45.96;99773.26;267597;1273;23982;-72
2023/03/29 07:14:33;;;;;;;11.80;5.30;;;;;;;7.52;45.14;99775.46;267470;1253;22636;-72
2023/03/29 07:20:37;;;;;;;9.30;4.80;;;;;;;7.32;45.07;99773.35;267658;1271;22549;-72
2023/03/29 07:26:43;;;;;;;9.40;5.00;;;;;;;7.51;44.74;99775.26;267315;1269;22589;-72
2023/03/29 07:33:03;;;;;;;9.60;4.20;;;;;;;7.88;44.22;99770.30;267179;1271;22755;-71
2023/03/29 07:39:14;;;;;;;9.40;4.00;;;;;;;7.97;43.94;99768.98;267448;1267;22820;-71
2023/03/29 07:45:20;;;;;;;9.70;4.50;;;;;;;7.96;44.01;99764.39;267334;1273;22624;-70
2023/03/29 07:51:42;;;;;;;6.40;3.60;;;;;;;7.91;43.44;99765.02;267402;1271;134163;-72
2023/03/29 07:57:46;;;;;;;7.30;3.70;;;;;;;8.34;43.41;99762.26;267562;1270;22713;-73
2023/03/29 08:03:48;;;;;;;9.30;4.60;;;;;;;8.59;42.84;99762.52;267449;1270;22552;-75
2023/03/29 08:09:50;;;;;;;10.30;4.80;;;;;;;8.81;42.59;99759.75;267537;1267;22526;-71
2023/03/29 08:15:54;;;;;;;9.70;4.80;;;;;;;8.90;42.02;99752.30;267438;1273;22574;-76
2023/03/29 08:22:01;;;;;;;9.60;4.10;;;;;;;9.45;41.81;99740.83;267292;1250;22582;-77
2023/03/29 08:28:12;;;;;;;7.50;3.90;;;;;;;9.61;40.34;99735.92;267341;1256;24231;-77
2023/03/29 08:34:20;;;;;;;5.40;2.30;;;;;;;9.21;39.43;99733.04;267175;1270;23304;-75
2023/03/29 08:40:37;;;;;;;7.10;2.60;;;;;;;9.43;36.59;99742.66;267318;1266;24546;-73
2023/03/29 08:47:35;;;;;;;6.30;2.90;;;;;;;9.71;36.51;99735.58;266988;1260;23014;-73
2023/03/29 08:53:41;;;;;;;6.10;2.60;;;;;;;10.53;37.16;99724.27;266162;1277;24234;-74
2023/03/29 08:59:50;;;;;;;5.60;3.00;;;;;;;10.23;37.09;99722.52;265837;1276;22555;-75
2023/03/29 09:05:56;;;;;;;5.30;2.60;;;;;;;10.14;37.40;99721.23;265791;1267;25349;-77
2023/03/29 09:12:15;;;;;;;5.40;2.40;;;;;;;10.37;37.92;99716.38;265885;1271;23049;-77
2023/03/29 09:18:48;;;;;;;3.70;2.00;;;;;;;10.58;36.98;99708.04;266066;1279;22668;-77
2023/03/29 09:25:20;;;;;;;2.70;1.60;;;;;;;10.15;36.70;99703.61;266888;1273;24256;-77
2023/03/29 09:31:27;;;;;;;4.20;1.60;;;;;;;10.55;36.70;99695.86;267306;1266;22720;-77
2023/03/29 09:37:33;;;;;;;3.90;1.80;;;;;;;10.58;37.12;99693.73;267553;1270;22564;-74
2023/03/29 09:43:40;;;;;;;4.60;1.90;;;;;;;10.19;37.03;99696.98;267715;1271;25437;-74
2023/03/29 09:49:47;;;;;;;4.30;1.80;;;;;;;11.28;36.96;99685.54;267491;1266;26049;-75
2023/03/29 09:55:50;;;;;;;1.90;1.40;;;;;;;11.18;36.89;99682.52;267233;1269;22589;-75
2023/03/29 10:02:12;;;;;;;3.40;1.70;;;;;;;10.68;35.77;99680.02;267354;1273;24163;-74
2023/03/29 10:08:41;;;;;;;5.10;1.80;;;;;;;10.91;36.79;99671.90;267819;1268;24275;-74
2023/03/29 10:14:52;;;;;;;4.00;1.90;;;;;;;12.45;35.96;99661.80;267309;1273;23430;-73
2023/03/29 10:20:58;;;;;;;3.30;1.80;;;;;;;11.72;37.30;99660.41;267729;1266;26500;-74
2023/03/29 10:27:02;;;;;;;4.40;1.80;;;;;;;11.72;36.92;99658.05;267178;1270;22533;-73
2023/03/29 10:33:05;;;;;;;3.60;1.80;;;;;;;11.90;36.82;99651.75;267882;1269;22688;-74
2023/03/29 10:39:09;;;;;;;3.50;1.70;;;;;;;11.77;36.57;99653.19;267683;1272;22530;-73
2023/03/29 10:45:21;;;;;;;5.30;1.90;;;;;;;12.02;36.46;99650.55;267476;1266;22570;-73
2023/03/29 10:51:26;;;;;;;7.30;1.40;;;;;;;13.14;35.40;99631.58;267583;1269;25291;-73
2023/03/29 10:57:37;;;;;;;5.10;1.60;;;;;;;12.46;34.34;99634.88;268221;1262;22533;-73
2023/03/29 11:03:57;;;;;;;3.70;1.40;;;;;;;13.40;33.66;99617.64;267379;1265;22525;-72
2023/03/29 11:10:13;;;;;;;3.40;1.70;;;;;;;15.41;32.93;99610.65;267415;1266;24333;-73
2023/03/29 11:16:15;;;;;;;4.40;1.80;;;;;;;12.75;35.35;99607.27;267019;1269;22590;-73
2023/03/29 11:22:20;;;;;;;2.80;1.60;;;;;;;12.52;36.48;99602.08;266913;1270;22566;-72
2023/03/29 11:28:41;;;;;;;6.10;1.70;;;;;;;12.72;35.56;99599.66;267463;1272;22667;-74
2023/03/29 11:35:09;;;;;;;3.90;1.70;;;;;;;12.77;34.58;99591.67;266827;1271;25336;-74
2023/03/29 11:41:16;;;;;;;6.70;1.80;;;;;;;12.52;35.34;99586.04;267517;1271;22585;-74
2023/03/29 11:47:20;;;;;;;3.90;1.60;;;;;;;12.52;34.48;99582.34;267386;1256;22565;-77
2023/03/29 11:53:27;;;;;;;3.40;1.60;;;;;;;12.91;34.50;99570.69;267127;1270;22541;-74
2023/03/29 11:59:36;;;;;;;3.30;1.50;;;;;;;12.64;34.64;99563.20;267376;1271;22643;-73
2023/03/29 12:05:44;;;;;;;2.50;1.60;;;;;;;12.54;33.25;99565.83;267412;1271;22562;-74
2023/03/29 12:12:01;;;;;;;3.60;1.30;;;;;;;13.15;33.29;99557.71;267336;1271;24398;-74
2023/03/29 12:18:06;;;;;;;2.80;1.50;;;;;;;13.08;33.34;99553.66;267402;1255;25339;-73
2023/03/29 12:24:19;;;;;;;2.90;1.70;;;;;;;13.45;33.76;99541.62;267064;1260;22613;-73
2023/03/29 12:30:40;;;;;;;3.10;1.80;;;;;;;13.71;33.68;99534.43;267084;1272;24318;-74
2023/03/29 12:37:20;;;;;;;4.70;1.90;;;;;;;14.01;33.88;99528.24;267400;1269;22534;-74
2023/03/29 12:43:42;;;;;;;2.60;1.60;;;;;;;13.87;34.00;99521.67;267622;1269;22836;-72
2023/03/29 12:50:03;;;;;;;3.90;1.90;;;;;;;13.75;33.77;99515.81;267082;1266;24436;-74
2023/03/29 12:56:07;;;;;;;4.60;1.90;;;;;;;13.94;33.22;99508.21;266792;1272;23408;-74
2023/03/29 13:02:12;;;;;;;3.20;1.70;;;;;;;13.83;33.29;99505.20;267430;1269;22574;-74
2023/03/29 13:08:25;;;;;;;3.20;2.00;;;;;;;14.17;34.14;99495.77;267463;1257;22560;-74
2023/03/29 13:14:29;;;;;;;3.30;1.40;;;;;;;13.93;33.37;99496.20;267342;1267;25596;-74
2023/03/29 13:21:20;;;;;;;3.60;1.70;;;;;;;14.11;32.35;99484.48;267324;1265;24231;-74
2023/03/29 13:27:38;;;;;;;3.50;1.20;;;;;;;13.91;33.05;99489.40;267123;1265;22554;-74
2023/03/29 13:33:55;;;;;;;4.30;1.70;;;;;;;14.24;32.54;99474.64;267559;1271;22564;-74
2023/03/29 13:39:56;;;;;;;2.30;1.30;;;;;;;14.51;33.07;99467.91;267682;1274;23803;-73
2023/03/29 13:45:58;;;;;;;4.50;1.80;;;;;;;14.26;33.75;99458.88;267116;1263;22587;-75
2023/03/29 13:52:15;;;;;;;5.20;1.60;;;;;;;14.33;33.75;99464.11;267602;1267;25323;-73
2023/03/29 13:58:38;;;;;;;3.20;1.50;;;;;;;14.07;33.58;99451.11;267083;1264;23253;-73
2023/03/29 14:04:45;;;;;;;4.30;2.00;;;;;;;14.24;33.33;99442.98;267544;1264;22533;-73
2023/03/29 14:10:47;;;;;;;4.60;1.80;;;;;;;14.32;34.27;99439.61;267691;1261;22557;-73
2023/03/29 14:16:49;;;;;;;4.50;1.70;;;;;;;14.47;33.63;99432.37;267880;1262;24232;-73
2023/03/29 14:22:52;;;;;;;4.60;2.00;;;;;;;14.30;34.32;99432.48;267868;1252;23433;-73
2023/03/29 14:28:59;;;;;;;3.30;1.50;;;;;;;14.77;33.91;99426.86;267244;1264;22651;-72
2023/03/29 14:35:01;;;;;;;2.80;1.70;;;;;;;14.82;34.09;99427.20;267352;1267;22586;-72
2023/03/29 14:41:06;;;;;;;3.70;1.60;;;;;;;14.83;34.54;99425.17;267494;1257;25348;-72
2023/03/29 14:47:15;;;;;;;4.10;2.20;;;;;;;14.88;34.34;99427.05;267681;1263;22578;-72
2023/03/29 14:53:21;;;;;;;4.70;2.30;;;;;;;16.06;33.23;99421.58;267937;1269;22585;-73
2023/03/29 14:59:37;;;;;;;3.70;2.00;;;;;;;15.70;34.18;99417.05;267304;1262;24270;-72
2023/03/29 15:05:56;;;;;;;4.50;2.40;;;;;;;15.90;33.86;99408.73;267452;1270;22534;-73
2023/03/29 15:12:04;;;;;;;5.60;2.10;;;;;;;15.84;33.88;99403.58;267435;1261;25452;-72
2023/03/29 15:18:08;;;;;;;4.70;2.50;;;;;;;15.63;34.17;99400.42;267537;1273;22797;-72
2023/03/29 15:24:30;;;;;;;6.00;2.50;;;;;;;15.83;34.38;99405.40;267243;1270;22644;-73
2023/03/29 15:30:37;;;;;;;3.90;1.90;;;;;;;16.57;34.08;99395.30;267764;1267;22547;-72
2023/03/29 15:36:49;;;;;;;5.40;2.20;;;;;;;16.12;34.06;99391.39;267191;1267;22570;-75
2023/03/29 15:42:58;;;;;;;5.00;2.60;;;;;;;16.11;34.01;99384.90;267366;1266;26560;-70
2023/03/29 15:49:03;;;;;;;3.70;2.00;;;;;;;16.30;34.37;99382.37;267814;1266;22549;-72
2023/03/29 15:55:11;;;;;;;5.70;2.10;;;;;;;16.10;34.35;99373.32;267832;1267;22552;-73
2023/03/29 16:01:37;;;;;;;5.80;2.20;;;;;;;17.92;32.68;99365.76;267622;1267;22536;-74
2023/03/29 16:07:39;;;;;;;3.20;1.90;;;;;;;17.45;33.08;99369.11;269088;1267;22534;-73
2023/03/29 16:13:44;;;;;;;4.90;2.10;;;;;;;17.60;33.27;99370.20;267817;1267;25291;-75
2023/03/29 16:19:48;;;;;;;4.30;2.10;;;;;;;16.62;33.72;99363.98;267626;1267;22544;-72
2023/03/29 16:25:50;;;;;;;4.70;2.10;;;;;;;15.74;34.85;99358.42;268584;1254;23226;-72
2023/03/29 16:31:52;;;;;;;4.90;2.30;;;;;;;15.46;35.12;99365.48;267555;1257;22537;-73
2023/03/29 16:37:55;;;;;;;4.50;2.50;;;;;;;15.00;35.64;99363.34;268183;1261;24216;-73
2023/03/29 16:43:57;;;;;;;5.70;2.10;;;;;;;14.87;36.06;99362.70;267655;1265;22532;-73
2023/03/29 16:49:59;;;;;;;6.20;2.40;;;;;;;14.40;36.59;99361.51;268423;1267;22182;-72
2023/03/29 16:56:02;;;;;;;8.60;2.90;;;;;;;14.16;37.07;99357.63;269286;1267;22243;-73
2023/03/29 17:02:04;;;;;;;5.20;2.30;;;;;;;13.79;37.75;99354.29;269220;1267;22292;-71
2023/03/29 17:08:08;;;;;;;5.50;2.20;;;;;;;13.90;38.20;99353.98;267662;1259;24378;-72
2023/03/29 17:14:11;;;;;;;5.30;2.10;;;;;;;13.55;38.70;99353.71;267972;1267;22712;-73
2023/03/29 17:20:13;;;;;;;3.80;2.00;;;;;;;14.05;38.52;99347.88;267004;1267;25516;-73
2023/03/29 17:26:17;;;;;;;7.10;2.20;;;;;;;-43.43;23.63;59609.55;265358;1268;1002612;-73
2023/03/29 17:32:18;;;;;;;4.70;2.30;;;;;;;-86.26;39.35;67522.84;265699;1267;1002119;-73
2023/03/29 17:38:20;;;;;;;7.10;2.70;;;;;;;-128.00;-1.00;-1.00;263271;1262;1002246;-73
2023/03/29 17:44:22;;;;;;;7.30;2.80;;;;;;;-128.00;-1.00;-1.00;263819;1270;1002558;-73
2023/03/29 17:50:25;;;;;;;6.80;2.40;;;;;;;-136.56;30.65;39018.07;265313;1267;1002311;-73
2023/03/29 17:56:27;;;;;;;6.00;2.30;;;;;;;-128.00;-1.00;-1.00;264389;1272;1002644;-75
2023/03/29 18:02:28;;;;;;;7.30;2.60;;;;;;;-128.00;-1.00;-1.00;264397;1266;1002423;-75
2023/03/29 18:08:31;;;;;;;8.10;2.90;;;;;;;-128.00;-1.00;-1.00;264366;1267;1002951;-76
2023/03/29 18:14:34;;;;;;;8.60;3.40;;;;;;;-132.28;19.20;11065.71;264942;1267;1002465;-73
2023/03/29 18:20:36;;;;;;;15.10;4.90;;;;;;;-108.69;48.34;67526.63;265293;1267;1003893;-71
2023/03/29 18:26:37;;;;;;;15.90;6.00;;;;;;;-128.00;-1.00;-1.00;263966;1266;1002577;-72
2023/03/29 18:32:39;;;;;;;21.40;6.40;;;;;;;-128.00;-1.00;-1.00;263866;1259;1002600;-71
2023/03/29 18:38:42;;;;;;;14.20;5.90;;;;;;;-128.00;-1.00;-1.00;263617;1259;1002636;-70
2023/03/29 18:44:48;;;;;;;18.30;6.20;;;;;;;-128.00;-1.00;-1.00;263730;1263;1002481;-72
2023/03/29 18:51:15;;;;;;;14.90;6.70;;;;;;;-128.00;-1.00;-1.00;263909;1267;1002649;-78
2023/03/29 18:57:25;;;;;;;18.40;7.70;;;;;;;-128.00;-1.00;-1.00;264156;1273;1002399;-77
2023/03/29 19:03:27;;;;;;;16.10;6.70;;;;;;;-128.00;-1.00;-1.00;264142;1268;1002842;-75
2023/03/29 19:09:30;;;;;;;16.90;7.60;;;;;;;-128.00;-1.00;-1.00;263760;1267;1002809;-75
2023/03/29 19:15:46;;;;;;;16.50;7.60;;;;;;;-128.00;-1.00;-1.00;264475;1259;1002303;-76
2023/03/29 19:21:48;;;;;;;16.10;7.80;;;;;;;-95.65;89.32;111379.34;268291;1263;22670;-77
2023/03/29 19:27:50;;;;;;;16.00;7.60;;;;;;;-17.20;58.72;79509.84;266833;1266;1002009;-72
2023/03/29 19:33:52;;;;;;;16.30;8.20;;;;;;;-128.00;-1.00;-1.00;263566;1268;1003528;-79
2023/03/29 19:39:57;;;;;;;17.90;7.80;;;;;;;-132.28;19.20;23824.43;264342;1272;1002853;-76
2023/03/29 19:46:05;;;;;;;18.90;8.20;;;;;;;-45.00;28.43;59630.86;265732;1269;1002028;-73
2023/03/29 19:52:07;;;;;;;17.80;7.80;;;;;;;-128.00;-1.00;-1.00;263872;1267;1002650;-76
2023/03/29 19:58:09;;;;;;;16.50;7.00;;;;;;;-128.00;-1.00;-1.00;263409;1270;1002972;-78
2023/03/29 20:04:10;;;;;;;16.60;7.40;;;;;;;-128.00;-1.00;-1.00;263900;1267;1002627;-78
2023/03/29 20:10:16;;;;;;;18.30;7.20;;;;;;;-128.00;-1.00;-1.00;264073;1270;1002694;-82
2023/03/29 20:16:23;;;;;;;16.30;6.90;;;;;;;-132.28;19.20;23824.43;265351;1266;1002897;-81
2023/03/29 20:22:29;;;;;;;16.70;6.60;;;;;;;-21.76;58.13;103336.48;268733;1269;57593;-81
2023/03/29 20:28:36;;;;;;;16.00;7.50;;;;;;;9.86;48.20;99392.83;268771;1274;23903;-80
2023/03/29 20:34:39;;;;;;;18.70;7.70;;;;;;;9.63;48.89;99392.01;268268;1258;22571;-81
2023/03/29 20:40:43;;;;;;;17.10;7.60;;;;;;;9.72;48.92;99383.98;268673;1273;25398;-81
2023/03/29 20:47:16;;;;;;;;;;;;;;;;;;;;;
2023/03/29 20:54:15;;;;;;;18.40;7.40;;;;;;;-45.59;29.58;59619.06;267199;1274;1002980;-86
2023/03/29 21:00:37;;;;;;;17.10;6.60;;;;;;;-49.85;60.18;83446.98;268045;1273;1002049;-83
2023/03/29 21:07:04;;;;;;;15.50;7.20;;;;;;;-140.84;59.60;71475.28;267003;1274;1002319;-85
2023/03/29 21:13:06;;;;;;;17.80;7.40;;;;;;;10.19;48.29;99355.48;268619;1270;22534;-80
2023/03/29 21:19:09;;;;;;;13.70;6.50;;;;;;;9.91;49.12;99349.10;268470;1274;24190;-78
2023/03/29 21:25:14;;;;;;;15.90;7.20;;;;;;;9.97;48.89;99342.69;267888;1268;25363;-78
2023/03/29 21:31:16;;;;;;;15.50;7.20;;;;;;;9.69;49.46;99333.00;267721;1274;23088;-78
2023/03/29 21:37:20;;;;;;;17.80;7.30;;;;;;;9.71;48.99;99331.48;268903;1259;22569;-83
2023/03/29 21:43:24;;;;;;;20.80;7.10;;;;;;;9.88;48.44;99331.48;268450;1270;24129;-82
2023/03/29 21:49:28;;;;;;;14.90;6.80;;;;;;;9.67;48.50;99330.19;268667;1274;22621;-81
2023/03/29 21:55:32;;;;;;;16.40;6.40;;;;;;;9.48;48.70;99331.65;268484;1274;22612;-81
2023/03/29 22:01:34;;;;;;;13.00;6.20;;;;;;;9.36;48.84;99332.84;268495;1274;22534;-83
2023/03/29 22:07:39;;;;;;;18.30;7.30;;;;;;;9.26;48.93;99333.31;268564;1273;22569;-84
2023/03/29 22:13:45;;;;;;;15.50;6.30;;;;;;;9.41;48.69;99330.61;268453;1269;24387;-83
2023/03/29 22:19:49;;;;;;;13.30;5.70;;;;;;;9.35;48.83;99327.39;268833;1256;22551;-83
2023/03/29 22:25:50;;;;;;;13.00;6.00;;;;;;;9.04;49.53;99329.34;268389;1268;24104;-83
2023/03/29 22:31:52;;;;;;;15.10;6.00;;;;;;;8.92;49.91;99332.98;268584;1273;22843;-83
2023/03/29 22:37:54;;;;;;;13.80;5.80;;;;;;;8.87;50.09;99323.59;268752;1262;23025;-81
2023/03/29 22:43:57;;;;;;;17.10;6.50;;;;;;;8.82;50.21;99320.02;268103;1269;22777;-80
2023/03/29 22:49:59;;;;;;;14.00;6.00;;;;;;;8.82;50.33;99319.17;267400;1271;25341;-79
2023/03/29 22:56:06;;;;;;;11.80;5.50;;;;;;;8.69;50.50;99318.60;267576;1274;24036;-79
2023/03/29 23:02:08;;;;;;;12.50;5.90;;;;;;;8.97;50.28;99311.35;267652;1269;22580;-78
2023/03/29 23:08:09;;;;;;;11.40;5.80;;;;;;;9.18;50.52;99305.05;267887;1262;25451;-74
2023/03/29 23:14:11;;;;;;;11.70;5.80;;;;;;;9.36;50.57;99297.88;267795;1257;25220;-74
2023/03/29 23:20:12;;;;;;;12.70;6.10;;;;;;;9.49;50.46;99296.09;267526;1273;22571;-73
2023/03/29 23:26:14;;;;;;;13.00;6.30;;;;;;;9.76;50.20;99294.45;269087;1266;25365;-73
2023/03/29 23:32:16;;;;;;;14.20;6.10;;;;;;;10.03;49.76;99285.23;268388;1268;23324;-74
2023/03/29 23:38:18;;;;;;;13.30;6.30;;;;;;;10.11;50.15;99276.48;268913;1268;23912;-73
2023/03/29 23:44:19;;;;;;;15.10;6.60;;;;;;;10.29;50.02;99273.54;271407;1269;25514;-73
2023/03/29 23:50:21;;;;;;;12.70;5.80;;;;;;;10.52;49.07;99262.84;273503;1260;22763;-73
2023/03/29 23:56:23;;;;;;;13.00;5.40;;;;;;;10.50;48.87;99253.36;270184;1270;25304;-73
